Time;durP1;ratioP1;P1;durP2;ratioP2;P2;SDS_P1;SDS_P2;PMS_P1;PMS_P2;Temp;Humidity;BMP_temperature;BMP_pressure;BME280_temperature;BME280_humidity;BME280_pressure;Samples;Min_cycle;Max_cycle;Signal;HPM_P1;HPM_P2
2022/01/13 00:01:10;;;;;;;84.28;32.00;;;3.30;99.90;;;;;;5034668;28;20021;-61
2022/01/13 00:03:36;;;;;;;79.93;29.88;;;3.30;99.90;;;;;;5027344;28;20045;-61
2022/01/13 00:06:01;;;;;;;74.25;29.42;;;3.30;99.90;;;;;;5042458;28;20052;-62
2022/01/13 00:08:27;;;;;;;81.47;30.55;;;3.30;99.90;;;;;;5031483;28;20030;-61
2022/01/13 00:10:52;;;;;;;85.40;31.63;;;3.20;99.90;;;;;;5033640;28;20033;-61
2022/01/13 00:13:24;;;;;;;71.15;28.10;;;3.20;99.90;;;;;;5038775;28;20464;-61
2022/01/13 00:16:11;;;;;;;97.53;35.42;;;3.20;99.90;;;;;;5031477;28;20021;-61
2022/01/13 00:18:48;;;;;;;85.63;34.05;;;3.20;99.90;;;;;;5034215;28;20045;-62
2022/01/13 00:21:17;;;;;;;84.90;33.58;;;3.20;99.90;;;;;;5031361;28;20546;-61
2022/01/13 00:23:49;;;;;;;89.90;32.60;;;3.10;99.90;;;;;;5028720;28;20024;-61
2022/01/13 00:26:22;;;;;;;86.85;31.88;;;3.10;99.90;;;;;;5042234;28;20025;-61
2022/01/13 00:28:50;;;;;;;101.10;35.22;;;3.10;99.90;;;;;;5030047;28;20397;-61
2022/01/13 00:31:18;;;;;;;88.85;32.70;;;3.00;99.90;;;;;;5034658;28;20533;-61
2022/01/13 00:33:46;;;;;;;107.20;35.13;;;3.10;99.90;;;;;;5033809;28;20065;-61
2022/01/13 00:36:12;;;;;;;98.05;34.50;;;3.00;99.90;;;;;;5030383;28;20028;-61
2022/01/13 00:38:38;;;;;;;109.43;36.40;;;3.00;99.90;;;;;;5029042;28;20029;-61
2022/01/13 00:41:03;;;;;;;104.10;35.90;;;3.00;99.90;;;;;;5031365;28;20375;-62
2022/01/13 00:43:29;;;;;;;98.50;32.67;;;3.00;99.90;;;;;;5036619;28;20021;-62
2022/01/13 00:45:55;;;;;;;96.55;33.28;;;3.00;99.90;;;;;;5036310;28;20032;-61
2022/01/13 00:48:20;;;;;;;111.72;38.15;;;3.00;99.90;;;;;;5039617;28;20027;-61
2022/01/13 00:50:46;;;;;;;114.40;37.22;;;3.00;99.90;;;;;;5036036;28;20056;-61
2022/01/13 00:53:12;;;;;;;106.22;32.40;;;2.90;99.90;;;;;;5039299;28;20503;-61
2022/01/13 00:58:22;;;;;;;107.90;31.20;;;3.00;99.90;;;;;;5033846;28;20060;-62
2022/01/13 01:00:47;;;;;;;100.30;33.47;;;3.00;99.90;;;;;;5030914;28;20061;-61
2022/01/13 01:03:13;;;;;;;98.50;31.98;;;3.00;99.90;;;;;;5037484;28;20041;-62
2022/01/13 01:05:39;;;;;;;97.38;32.13;;;3.00;99.90;;;;;;5043043;28;20036;-61
2022/01/13 01:08:05;;;;;;;98.85;30.33;;;3.00;99.90;;;;;;5035978;28;20032;-61
2022/01/13 01:10:31;;;;;;;97.03;29.17;;;3.00;99.90;;;;;;5036407;28;20390;-61
2022/01/13 01:12:58;;;;;;;90.82;29.77;;;3.00;99.90;;;;;;5034564;28;20017;-61
2022/01/13 01:15:25;;;;;;;95.13;31.38;;;3.00;99.90;;;;;;5032082;28;20029;-61
2022/01/13 01:17:57;;;;;;;88.22;28.45;;;3.00;99.90;;;;;;5048536;28;20017;-61
2022/01/13 01:20:29;;;;;;;92.20;29.60;;;3.00;99.90;;;;;;5048711;28;20033;-61
2022/01/13 01:23:10;;;;;;;85.38;26.73;;;3.10;99.90;;;;;;5035631;28;20452;-61
2022/01/13 01:25:43;;;;;;;77.22;25.58;;;3.10;99.90;;;;;;5034295;28;20064;-61
2022/01/13 01:28:15;;;;;;;79.53;27.90;;;3.10;99.90;;;;;;5031896;28;20465;-61
2022/01/13 01:30:44;;;;;;;80.80;27.73;;;3.10;99.90;;;;;;5042688;28;20029;-61
2022/01/13 01:33:15;;;;;;;65.93;25.17;;;3.10;99.90;;;;;;5037077;28;20032;-61
2022/01/13 01:35:40;;;;;;;49.65;21.25;;;3.10;99.90;;;;;;5037248;28;20079;-62
2022/01/13 01:38:07;;;;;;;56.95;19.17;;;3.20;99.90;;;;;;5038380;28;20022;-61
2022/01/13 01:40:32;;;;;;;45.53;17.70;;;3.10;99.90;;;;;;5038670;28;20492;-61
2022/01/13 01:42:58;;;;;;;58.70;20.27;;;3.20;99.90;;;;;;5045247;28;20069;-61
2022/01/13 01:45:30;;;;;;;55.88;19.05;;;3.20;99.90;;;;;;5045900;28;20025;-61
2022/01/13 01:47:56;;;;;;;51.40;19.00;;;3.20;99.90;;;;;;5052037;28;20021;-61
2022/01/13 01:50:24;;;;;;;53.47;19.70;;;3.20;99.90;;;;;;5042711;28;20043;-61
2022/01/13 01:52:52;;;;;;;51.28;19.20;;;3.20;99.90;;;;;;5040042;28;20393;-61
2022/01/13 01:55:19;;;;;;;53.92;19.77;;;3.20;99.90;;;;;;5032178;28;20116;-61
2022/01/13 01:57:48;;;;;;;62.72;20.83;;;3.30;99.90;;;;;;5040212;28;20056;-61
2022/01/13 02:00:16;;;;;;;51.22;20.80;;;3.30;99.90;;;;;;5032537;28;20022;-61
2022/01/13 02:02:43;;;;;;;71.63;25.25;;;3.30;99.90;;;;;;5031623;28;20122;-61
2022/01/13 02:05:09;;;;;;;63.45;24.13;;;3.20;99.90;;;;;;5037927;28;20144;-61
2022/01/13 02:07:35;;;;;;;59.78;23.58;;;3.10;99.90;;;;;;5033576;28;20509;-61
2022/01/13 02:10:00;;;;;;;66.43;23.15;;;3.10;99.90;;;;;;5036486;28;20039;-61
2022/01/13 02:12:33;;;;;;;54.53;21.67;;;3.10;99.90;;;;;;5033585;28;20100;-61
2022/01/13 02:17:38;;;;;;;52.33;18.63;;;3.10;99.90;;;;;;5031921;28;20021;-61
2022/01/13 02:20:08;;;;;;;57.10;21.38;;;3.10;99.90;;;;;;5036021;28;20049;-61
2022/01/13 02:22:34;;;;;;;54.97;19.70;;;3.20;99.90;;;;;;5030531;28;20116;-61
2022/01/13 02:25:00;;;;;;;51.35;18.88;;;3.10;99.90;;;;;;5035847;28;20116;-61
2022/01/13 02:27:25;;;;;;;44.25;18.10;;;3.10;99.90;;;;;;5036940;28;20030;-61
2022/01/13 02:29:51;;;;;;;43.17;16.88;;;3.20;99.90;;;;;;5037634;28;20486;-62
2022/01/13 02:32:17;;;;;;;47.53;18.52;;;3.20;99.90;;;;;;5035635;28;20029;-61
2022/01/13 02:34:43;;;;;;;43.88;17.65;;;3.20;99.90;;;;;;5032957;28;20014;-62
2022/01/13 02:37:09;;;;;;;46.38;18.00;;;3.20;99.90;;;;;;5030283;28;20040;-61
2022/01/13 02:39:35;;;;;;;39.13;16.83;;;3.20;99.90;;;;;;5033273;28;20017;-61
2022/01/13 02:42:03;;;;;;;40.13;16.80;;;3.20;99.90;;;;;;5033021;28;20478;-61
2022/01/13 02:44:30;;;;;;;44.40;18.80;;;3.20;99.90;;;;;;5032879;28;20057;-61
2022/01/13 02:47:09;;;;;;;42.20;18.55;;;3.10;99.90;;;;;;5030241;28;20014;-61
2022/01/13 02:49:35;;;;;;;42.20;17.58;;;3.10;99.90;;;;;;5037785;28;20021;-61
2022/01/13 02:52:02;;;;;;;39.15;17.55;;;3.10;99.90;;;;;;5030467;28;20021;-61
2022/01/13 02:54:27;;;;;;;37.67;16.88;;;3.10;99.90;;;;;;5032520;28;20021;-61
2022/01/13 02:56:53;;;;;;;52.05;19.88;;;3.10;99.90;;;;;;5032900;28;20032;-61
2022/01/13 02:59:18;;;;;;;47.28;19.63;;;3.10;99.90;;;;;;5028395;28;20025;-61
2022/01/13 03:01:44;;;;;;;45.65;20.00;;;3.10;99.90;;;;;;5035436;28;20025;-62
2022/01/13 03:04:10;;;;;;;45.25;17.70;;;3.10;99.90;;;;;;5036795;28;20040;-61
2022/01/13 03:06:39;;;;;;;44.35;18.17;;;3.00;99.90;;;;;;5031118;28;20032;-61
2022/01/13 03:09:20;;;;;;;49.92;21.15;;;3.00;99.90;;;;;;5035164;28;20025;-62
2022/01/13 03:11:47;;;;;;;54.17;23.77;;;3.00;99.90;;;;;;5029743;28;20014;-61
2022/01/13 03:14:13;;;;;;;52.67;22.42;;;2.90;99.90;;;;;;5034532;28;20098;-61
2022/01/13 03:16:43;;;;;;;53.90;22.27;;;2.90;99.90;;;;;;5041022;28;20536;-61
2022/01/13 03:19:10;;;;;;;44.97;20.48;;;2.80;99.90;;;;;;5036223;28;20056;-61
2022/01/13 03:21:36;;;;;;;50.83;21.85;;;2.80;99.90;;;;;;5038971;28;20505;-61
2022/01/13 03:24:07;;;;;;;50.17;20.88;;;2.80;99.90;;;;;;5034694;28;20393;-61
2022/01/13 03:26:33;;;;;;;48.35;21.88;;;2.80;99.90;;;;;;5031553;28;20021;-61
2022/01/13 03:29:15;;;;;;;50.10;23.40;;;2.70;99.90;;;;;;5032573;28;20424;-61
2022/01/13 03:31:42;;;;;;;54.83;23.73;;;2.70;99.90;;;;;;5034712;28;20021;-61
2022/01/13 03:34:07;;;;;;;52.47;23.70;;;2.60;99.90;;;;;;5034904;28;20024;-61
2022/01/13 03:36:33;;;;;;;48.55;21.50;;;2.60;99.90;;;;;;5032018;28;20029;-61
2022/01/13 03:38:59;;;;;;;51.72;22.67;;;2.60;99.90;;;;;;5034570;28;20488;-61
2022/01/13 03:41:47;;;;;;;;;;;;;;;;;;;;;
2022/01/13 03:44:27;;;;;;;53.08;21.70;;;2.60;99.90;;;;;;5032016;28;20039;-61
2022/01/13 03:46:59;;;;;;;47.13;22.33;;;2.60;99.90;;;;;;5032253;28;20036;-61
2022/01/13 03:49:25;;;;;;;48.60;21.70;;;2.50;99.90;;;;;;5028979;28;20401;-61
2022/01/13 03:51:58;;;;;;;50.70;21.27;;;2.60;99.90;;;;;;5034498;28;20025;-61
2022/01/13 03:54:33;;;;;;;51.75;23.38;;;2.60;99.90;;;;;;5031575;28;20381;-61
2022/01/13 03:57:17;;;;;;;45.35;21.10;;;2.50;99.90;;;;;;5034607;28;20486;-61
2022/01/13 04:00:20;;;;;;;50.63;21.50;;;2.50;99.90;;;;;;5031518;28;20028;-62
2022/01/13 04:02:46;;;;;;;53.78;25.17;;;2.50;99.90;;;;;;5029118;28;20032;-61
2022/01/13 04:05:25;;;;;;;49.42;21.25;;;2.40;99.90;;;;;;5028795;28;20113;-61
2022/01/13 04:08:03;;;;;;;46.53;21.10;;;2.40;99.90;;;;;;5030477;28;20031;-61
2022/01/13 04:10:52;;;;;;;48.00;20.23;;;2.40;99.90;;;;;;5036815;28;20040;-61
2022/01/13 04:13:43;;;;;;;42.78;19.20;;;2.50;99.90;;;;;;5028869;28;20076;-61
2022/01/13 04:16:09;;;;;;;44.67;20.95;;;2.40;99.90;;;;;;5034221;28;20028;-61
2022/01/13 04:18:35;;;;;;;43.90;21.30;;;2.40;99.90;;;;;;5028443;28;20101;-61
2022/01/13 04:21:01;;;;;;;45.78;21.38;;;2.50;99.90;;;;;;5034330;28;20115;-62
2022/01/13 04:23:26;;;;;;;48.47;21.45;;;2.40;99.90;;;;;;5028753;28;20493;-61
2022/01/13 04:25:52;;;;;;;44.83;20.08;;;2.40;99.90;;;;;;5036807;28;20041;-61
2022/01/13 04:28:25;;;;;;;48.30;21.02;;;2.40;99.90;;;;;;5034977;28;20033;-61
2022/01/13 04:30:53;;;;;;;48.25;20.85;;;2.40;99.90;;;;;;5039649;28;20044;-61
2022/01/13 04:33:19;;;;;;;49.45;20.48;;;2.40;99.90;;;;;;5033522;28;20056;-61
2022/01/13 04:35:45;;;;;;;47.42;22.33;;;2.40;99.90;;;;;;5035272;28;20045;-61
2022/01/13 04:38:10;;;;;;;53.55;21.15;;;2.40;99.90;;;;;;5032929;28;20084;-62
2022/01/13 04:40:43;;;;;;;45.28;20.65;;;2.40;99.90;;;;;;5040547;28;20025;-61
2022/01/13 04:43:09;;;;;;;45.20;20.25;;;2.40;99.90;;;;;;5035465;28;20056;-61
2022/01/13 04:45:34;;;;;;;47.65;19.98;;;2.40;99.90;;;;;;5038632;28;20045;-61
2022/01/13 04:48:00;;;;;;;44.35;19.08;;;2.40;99.90;;;;;;5036032;28;20081;-61
2022/01/13 04:50:28;;;;;;;42.10;17.63;;;2.40;99.90;;;;;;5038448;28;20501;-61
2022/01/13 04:52:53;;;;;;;41.42;19.35;;;2.40;99.90;;;;;;5039799;28;20056;-61
2022/01/13 04:55:24;;;;;;;45.65;19.80;;;2.40;99.90;;;;;;5034636;28;20056;-61
2022/01/13 04:57:51;;;;;;;49.08;19.15;;;2.40;99.90;;;;;;5043480;28;20423;-61
2022/01/13 05:00:17;;;;;;;39.70;17.70;;;2.40;99.90;;;;;;5032139;28;20044;-61
2022/01/13 05:02:42;;;;;;;44.00;19.63;;;2.40;99.90;;;;;;5032077;28;20021;-61
2022/01/13 05:05:08;;;;;;;38.60;18.08;;;2.40;99.90;;;;;;5037645;28;20036;-61
2022/01/13 05:07:46;;;;;;;45.83;18.42;;;2.40;99.90;;;;;;5032102;28;20017;-61
2022/01/13 05:10:12;;;;;;;39.15;18.52;;;2.40;99.90;;;;;;5031978;28;20079;-61
2022/01/13 05:12:53;;;;;;;42.88;18.45;;;2.40;99.90;;;;;;5034682;28;20025;-61
2022/01/13 05:15:22;;;;;;;38.28;18.08;;;2.40;99.90;;;;;;5031854;28;20428;-61
2022/01/13 05:20:28;;;;;;;37.92;17.15;;;2.40;99.90;;;;;;5037283;28;20049;-61
2022/01/13 05:22:55;;;;;;;39.75;18.63;;;2.40;99.90;;;;;;5034653;28;20053;-61
2022/01/13 05:25:21;;;;;;;43.00;18.83;;;2.40;99.90;;;;;;5037262;28;20595;-61
2022/01/13 05:27:47;;;;;;;42.03;17.10;;;2.40;99.90;;;;;;5037493;28;20128;-61
2022/01/13 05:30:17;;;;;;;36.92;18.17;;;2.40;99.90;;;;;;5034404;28;20397;-61
2022/01/13 05:32:43;;;;;;;;;;;2.40;99.90;;;;;;5034313;28;20029;-61
2022/01/13 05:35:10;;;;;;;40.10;18.15;;;2.30;99.90;;;;;;5034918;28;19909;-61
2022/01/13 05:37:48;;;;;;;35.30;17.27;;;2.20;99.90;;;;;;5035232;28;20052;-61
2022/01/13 05:40:14;;;;;;;34.15;16.83;;;2.20;99.90;;;;;;5033454;28;20029;-61
2022/01/13 05:42:40;;;;;;;38.05;18.25;;;2.20;99.90;;;;;;5034898;28;20025;-61
2022/01/13 05:45:14;;;;;;;38.15;16.63;;;2.20;99.90;;;;;;5033766;28;20045;-61
2022/01/13 05:47:41;;;;;;;35.33;17.42;;;2.20;99.90;;;;;;5033359;28;20029;-61
2022/01/13 05:50:08;;;;;;;33.85;17.27;;;2.20;99.90;;;;;;5032637;28;20128;-61
2022/01/13 05:52:34;;;;;;;38.75;17.73;;;2.20;99.90;;;;;;5034984;28;20477;-61
2022/01/13 05:54:59;;;;;;;35.85;16.35;;;2.10;99.90;;;;;;5034809;28;20047;-61
2022/01/13 05:57:25;;;;;;;33.42;16.05;;;2.10;99.90;;;;;;5033681;28;20029;-61
2022/01/13 05:59:50;;;;;;;37.75;17.80;;;2.10;99.90;;;;;;5035106;28;20030;-61
2022/01/13 06:02:16;;;;;;;39.22;17.67;;;2.10;99.90;;;;;;5035138;28;20021;-61
2022/01/13 06:04:41;;;;;;;37.38;16.08;;;2.10;99.90;;;;;;5034876;28;20470;-61
2022/01/13 06:07:07;;;;;;;38.95;18.92;;;2.10;99.90;;;;;;5035089;28;20037;-61
2022/01/13 06:09:42;;;;;;;40.53;17.58;;;2.10;99.90;;;;;;5034829;28;20052;-61
2022/01/13 06:12:08;;;;;;;43.67;17.05;;;2.10;99.90;;;;;;5034796;28;20029;-61
2022/01/13 06:14:33;;;;;;;35.42;16.38;;;2.10;99.90;;;;;;5034722;28;20104;-61
2022/01/13 06:16:59;;;;;;;35.38;17.17;;;2.10;99.90;;;;;;5046844;28;20048;-61
2022/01/13 06:19:24;;;;;;;38.17;18.33;;;2.10;99.90;;;;;;5054411;28;20041;-61
2022/01/13 06:21:50;;;;;;;40.30;17.10;;;2.10;99.90;;;;;;5054419;28;20029;-60
2022/01/13 06:24:15;;;;;;;31.23;15.35;;;2.10;99.90;;;;;;5054480;28;20087;-61
2022/01/13 06:26:41;;;;;;;43.03;18.77;;;2.10;99.90;;;;;;5054310;28;20025;-61
2022/01/13 06:29:06;;;;;;;43.60;16.77;;;2.20;99.90;;;;;;5054443;28;20025;-61
2022/01/13 06:31:32;;;;;;;36.22;15.02;;;2.20;99.90;;;;;;5054173;28;20111;-61
2022/01/13 06:33:58;;;;;;;39.92;16.70;;;2.20;99.90;;;;;;5053095;28;20024;-61
2022/01/13 06:36:23;;;;;;;34.55;15.32;;;2.20;99.90;;;;;;5054283;28;20029;-61
2022/01/13 06:38:50;;;;;;;37.70;17.52;;;2.30;99.90;;;;;;5054357;28;20147;-61
2022/01/13 06:41:16;;;;;;;37.83;16.50;;;2.30;99.90;;;;;;5054200;28;20032;-61
2022/01/13 06:43:42;;;;;;;40.47;18.08;;;2.30;99.90;;;;;;5054002;28;20032;-61
2022/01/13 06:46:07;;;;;;;44.50;16.80;;;2.30;99.90;;;;;;5054193;28;20044;-62
2022/01/13 06:48:33;;;;;;;38.90;16.95;;;2.30;99.90;;;;;;5054006;28;20079;-61
2022/01/13 06:50:58;;;;;;;40.55;16.67;;;2.30;99.90;;;;;;5052584;28;20480;-61
2022/01/13 06:53:46;;;;;;;38.63;17.70;;;2.30;99.90;;;;;;5052963;28;20469;-61
2022/01/13 06:56:11;;;;;;;41.28;15.80;;;2.40;99.90;;;;;;5054097;28;20095;-61
2022/01/13 06:58:37;;;;;;;34.70;15.82;;;2.40;99.90;;;;;;5053684;28;20057;-61
2022/01/13 07:01:03;;;;;;;41.33;17.52;;;2.40;99.90;;;;;;5053819;28;20079;-61
2022/01/13 07:03:33;;;;;;;35.75;16.45;;;2.40;99.90;;;;;;5053695;28;20489;-61
2022/01/13 07:05:58;;;;;;;39.17;16.27;;;2.40;99.90;;;;;;5054092;28;20033;-61
2022/01/13 07:08:24;;;;;;;41.97;18.02;;;2.40;99.90;;;;;;5053676;28;20029;-61
2022/01/13 07:10:49;;;;;;;43.70;16.85;;;2.40;99.90;;;;;;5052359;28;20032;-61
2022/01/13 07:13:15;;;;;;;39.33;15.70;;;2.50;99.90;;;;;;5053421;28;20071;-61
2022/01/13 07:15:44;;;;;;;39.63;16.92;;;2.40;99.90;;;;;;5053374;28;20051;-61
2022/01/13 07:18:10;;;;;;;39.07;16.33;;;2.50;99.90;;;;;;5053549;28;20032;-61
2022/01/13 07:20:37;;;;;;;36.85;16.63;;;2.50;99.90;;;;;;5052088;28;21110;-61
2022/01/13 07:23:02;;;;;;;35.28;15.50;;;2.50;99.90;;;;;;5053465;28;20389;-61
2022/01/13 07:25:28;;;;;;;45.35;18.83;;;2.50;99.90;;;;;;5053221;28;20481;-61
2022/01/13 07:27:55;;;;;;;37.95;17.10;;;2.50;99.90;;;;;;5052233;28;20032;-61
2022/01/13 07:30:20;;;;;;;40.45;17.33;;;2.50;99.90;;;;;;5049030;28;20548;-61
2022/01/13 07:32:46;;;;;;;43.90;18.45;;;2.50;99.90;;;;;;5040636;28;20047;-61
2022/01/13 07:35:12;;;;;;;35.83;16.23;;;2.50;99.90;;;;;;5051401;28;20009;-61
2022/01/13 07:37:39;;;;;;;44.00;17.85;;;2.50;99.90;;;;;;5046039;28;20024;-61
2022/01/13 07:40:05;;;;;;;40.30;15.82;;;2.50;99.90;;;;;;5048480;28;20072;-61
2022/01/13 07:42:31;;;;;;;30.27;13.80;;;2.50;99.90;;;;;;5050469;28;20621;-61
2022/01/13 07:44:57;;;;;;;36.20;14.55;;;2.50;99.90;;;;;;5049073;28;20079;-61
2022/01/13 07:47:22;;;;;;;30.13;13.05;;;2.50;99.90;;;;;;5049160;28;20029;-61
2022/01/13 07:49:48;;;;;;;31.77;13.38;;;2.60;99.90;;;;;;5051906;28;20017;-61
2022/01/13 07:52:13;;;;;;;29.27;12.43;;;2.60;99.90;;;;;;5046400;28;20536;-61
2022/01/13 07:55:00;;;;;;;29.95;12.93;;;2.60;99.90;;;;;;5051798;28;20025;-62
2022/01/13 07:57:35;;;;;;;34.33;13.05;;;2.60;99.90;;;;;;5049386;28;20033;-61
2022/01/13 08:00:00;;;;;;;34.92;14.68;;;2.60;99.90;;;;;;5051812;28;20396;-61
2022/01/13 08:02:26;;;;;;;35.03;14.65;;;2.60;99.90;;;;;;5051464;28;20082;-61
2022/01/13 08:05:08;;;;;;;31.38;13.13;;;2.60;99.90;;;;;;5050322;28;20028;-61
2022/01/13 08:07:34;;;;;;;33.03;14.40;;;2.70;99.90;;;;;;5052726;28;20481;-61
2022/01/13 08:09:59;;;;;;;30.40;12.90;;;2.60;99.90;;;;;;5051573;28;20033;-61
2022/01/13 08:12:25;;;;;;;32.08;14.15;;;2.60;99.90;;;;;;5055408;28;20385;-61
2022/01/13 08:15:12;;;;;;;31.92;13.43;;;2.70;99.90;;;;;;5071803;28;20025;-61
2022/01/13 08:20:22;;;;;;;31.30;13.13;;;2.60;99.90;;;;;;5052477;28;20059;-61
2022/01/13 08:22:47;;;;;;;34.95;13.57;;;2.60;99.90;;;;;;5052548;28;20040;-61
2022/01/13 08:25:29;;;;;;;41.10;14.65;;;2.70;99.90;;;;;;5051933;28;20033;-61
2022/01/13 08:28:18;;;;;;;28.90;13.25;;;2.70;99.90;;;;;;5052507;28;20606;-61
2022/01/13 08:30:44;;;;;;;34.65;14.18;;;2.70;99.90;;;;;;5047957;28;20065;-61
2022/01/13 08:33:41;;;;;;;34.22;14.38;;;2.70;99.90;;;;;;5045504;28;20107;-61
2022/01/13 08:36:54;;;;;;;34.58;16.20;;;2.70;99.90;;;;;;5048083;28;20465;-61
2022/01/13 08:39:20;;;;;;;33.15;14.77;;;2.80;99.90;;;;;;5030734;28;20132;-61
2022/01/13 08:41:46;;;;;;;32.63;14.43;;;2.70;99.90;;;;;;5032818;28;20044;-61
2022/01/13 08:44:12;;;;;;;35.25;13.88;;;2.70;99.90;;;;;;5042502;28;20033;-61
2022/01/13 08:46:39;;;;;;;36.00;14.82;;;2.80;99.90;;;;;;5051011;28;20432;-61
2022/01/13 08:49:17;;;;;;;36.22;15.65;;;2.80;99.90;;;;;;5051844;28;20033;-61
2022/01/13 08:51:42;;;;;;;36.13;16.45;;;2.80;99.90;;;;;;5052131;28;20021;-61
2022/01/13 08:54:08;;;;;;;40.88;17.23;;;2.80;99.90;;;;;;5051033;28;20082;-61
2022/01/13 08:56:33;;;;;;;35.47;15.18;;;2.80;99.90;;;;;;5052281;28;20034;-62
2022/01/13 08:59:43;;;;;;;;;;;;;;;;;;;;;
2022/01/13 09:03:11;;;;;;;;;;;;;;;;;;;;;
2022/01/13 09:09:07;;;;;;;28.70;12.45;;;2.90;99.90;;;;;;4929621;28;20128;-61
2022/01/13 09:11:32;;;;;;;25.63;11.20;;;2.90;99.90;;;;;;5041414;28;20037;-61
2022/01/13 09:13:58;;;;;;;29.60;13.48;;;2.90;99.90;;;;;;5050687;28;20086;-61
2022/01/13 09:16:30;;;;;;;35.17;14.15;;;3.00;99.90;;;;;;5054198;28;20028;-61
2022/01/13 09:21:30;;;;;;;31.35;13.85;;;3.00;99.90;;;;;;5055628;28;20021;-62
2022/01/13 09:23:56;;;;;;;30.65;13.85;;;3.10;99.90;;;;;;5055107;28;20554;-61
2022/01/13 09:26:21;;;;;;;34.35;14.10;;;3.10;99.90;;;;;;5054214;28;20028;-61
2022/01/13 09:28:47;;;;;;;34.80;13.75;;;3.20;99.90;;;;;;5055071;28;20036;-61
2022/01/13 09:31:13;;;;;;;34.70;14.20;;;3.20;99.90;;;;;;5055285;28;20025;-62
2022/01/13 09:33:38;;;;;;;34.25;13.82;;;3.20;99.90;;;;;;5055259;28;20041;-61
2022/01/13 09:36:08;;;;;;;38.55;15.18;;;3.20;99.90;;;;;;5055541;28;20082;-61
2022/01/13 09:38:34;;;;;;;;;;;3.20;99.90;;;;;;5054612;28;20109;-61
2022/01/13 09:41:21;;;;;;;;;;;;;;;;;;;;;
2022/01/13 09:43:47;;;;;;;37.95;17.00;;;3.20;99.90;;;;;;5055236;28;20033;-61
2022/01/13 09:46:13;;;;;;;38.95;16.15;;;3.20;99.90;;;;;;5055360;28;20112;-61
2022/01/13 09:49:07;;;;;;;;;;;;;;;;;;;;;
2022/01/13 09:51:34;;;;;;;33.55;14.75;;;3.20;99.90;;;;;;5055122;28;20039;-61
2022/01/13 09:54:11;;;;;;;39.75;17.05;;;3.20;99.90;;;;;;5054881;28;20481;-60
2022/01/13 09:56:36;;;;;;;38.33;15.38;;;3.20;99.90;;;;;;5055071;28;20061;-61
2022/01/13 09:59:05;;;;;;;35.15;14.90;;;3.20;99.90;;;;;;5054497;28;20049;-61
2022/01/13 10:01:31;;;;;;;37.60;16.63;;;3.30;99.90;;;;;;5054867;28;20041;-61
2022/01/13 10:03:56;;;;;;;39.22;16.38;;;3.30;99.90;;;;;;5054558;28;20040;-61
2022/01/13 10:06:22;;;;;;;34.30;15.68;;;3.40;99.90;;;;;;5054781;28;20036;-62
2022/01/13 10:09:00;;;;;;;35.47;15.35;;;3.40;99.90;;;;;;5054323;28;20808;-62
2022/01/13 10:11:56;;;;;;;39.05;16.98;;;3.40;99.90;;;;;;5054574;28;20025;-61
2022/01/13 10:16:58;;;;;;;30.50;13.63;;;3.40;99.90;;;;;;5054390;28;20025;-61
2022/01/13 10:19:32;;;;;;;38.72;15.55;;;3.50;99.90;;;;;;5054103;28;20040;-61
2022/01/13 10:22:14;;;;;;;37.20;16.27;;;3.50;99.90;;;;;;5054728;28;20074;-61
2022/01/13 10:24:59;;;;;;;31.58;15.40;;;3.50;99.90;;;;;;5054100;28;20021;-61
2022/01/13 10:27:30;;;;;;;37.47;16.27;;;3.40;99.90;;;;;;5053771;28;20061;-61
2022/01/13 10:29:58;;;;;;;39.88;16.20;;;3.40;99.90;;;;;;5054057;28;20021;-61
2022/01/13 10:32:34;;;;;;;31.42;14.82;;;3.40;99.90;;;;;;5053886;28;20029;-61
2022/01/13 10:35:10;;;;;;;30.15;15.68;;;3.40;99.90;;;;;;5034283;28;20018;-61
2022/01/13 10:38:02;;;;;;;34.63;14.93;;;3.40;99.90;;;;;;5034056;28;20381;-61
2022/01/13 10:40:38;;;;;;;29.35;14.00;;;3.40;99.90;;;;;;5032026;28;20037;-61
2022/01/13 10:49:14;;;;;;;26.70;13.10;;;3.50;99.90;;;;;;5033345;28;20515;-62
2022/01/13 10:51:39;;;;;;;24.55;12.23;;;3.50;99.90;;;;;;5034040;28;20030;-61
2022/01/13 10:54:23;;;;;;;30.75;13.88;;;3.50;99.90;;;;;;5033965;28;20032;-60
2022/01/13 10:56:49;;;;;;;28.67;13.52;;;3.50;99.90;;;;;;5033877;28;20025;-61
2022/01/13 10:59:33;;;;;;;29.27;13.10;;;3.50;99.90;;;;;;5033519;28;20104;-61
2022/01/13 11:02:10;;;;;;;27.90;13.70;;;3.60;99.90;;;;;;5034103;28;20094;-61
2022/01/13 11:04:35;;;;;;;24.55;12.18;;;3.60;99.90;;;;;;5033562;28;20161;-62
2022/01/13 11:07:24;;;;;;;36.08;14.70;;;3.60;99.90;;;;;;5033650;28;20473;-62
2022/01/13 11:10:00;;;;;;;28.88;14.65;;;3.60;99.90;;;;;;5033510;28;20389;-61
2022/01/13 11:12:35;;;;;;;34.20;16.90;;;3.60;99.90;;;;;;5033704;28;20022;-61
2022/01/13 11:15:05;;;;;;;33.78;15.70;;;3.50;99.90;;;;;;5033438;28;20044;-61
2022/01/13 11:17:51;;;;;;;33.45;15.55;;;3.50;99.90;;;;;;5049628;28;20477;-61
2022/01/13 11:20:18;;;;;;;36.90;17.58;;;3.50;99.90;;;;;;5053181;28;20501;-62
2022/01/13 11:22:48;;;;;;;30.00;15.27;;;3.40;99.90;;;;;;5053658;28;20037;-62
2022/01/13 11:25:16;;;;;;;33.38;16.05;;;3.40;99.90;;;;;;5053085;28;20115;-62
2022/01/13 11:27:43;;;;;;;33.55;15.68;;;3.30;99.90;;;;;;5053095;28;20107;-62
2022/01/13 11:30:13;;;;;;;28.27;14.32;;;3.40;99.90;;;;;;5052984;28;20037;-62
2022/01/13 11:32:43;;;;;;;33.25;15.27;;;3.40;99.90;;;;;;5053245;28;20108;-62
2022/01/13 11:35:11;;;;;;;32.42;15.15;;;3.40;99.90;;;;;;5051596;28;20029;-62
2022/01/13 11:37:57;;;;;;;;;;;;;;;;;;;;;
2022/01/13 11:40:26;;;;;;;29.67;14.60;;;3.40;99.90;;;;;;5052882;28;20021;-62
2022/01/13 11:42:52;;;;;;;30.90;14.73;;;3.50;99.90;;;;;;5053060;28;20029;-62
2022/01/13 11:45:20;;;;;;;31.15;13.80;;;3.50;99.90;;;;;;5052824;28;20033;-62
2022/01/13 11:47:46;;;;;;;32.70;15.68;;;3.60;99.90;;;;;;5049223;28;20508;-62
2022/01/13 11:50:30;;;;;;;32.25;14.65;;;3.60;99.90;;;;;;5050260;28;20029;-62
2022/01/13 11:52:57;;;;;;;37.53;15.65;;;3.60;99.90;;;;;;5051538;28;20017;-62
2022/01/13 11:55:34;;;;;;;31.35;15.85;;;3.60;99.90;;;;;;5051441;28;20033;-62
2022/01/13 11:58:25;;;;;;;29.73;13.82;;;3.60;99.90;;;;;;5052680;28;20083;-62
2022/01/13 12:00:52;;;;;;;33.72;16.92;;;3.70;99.90;;;;;;5051151;28;20389;-62
2022/01/13 12:03:36;;;;;;;29.92;15.18;;;3.70;99.90;;;;;;5052724;28;20047;-62
2022/01/13 12:06:03;;;;;;;30.08;15.05;;;3.70;99.90;;;;;;5051377;28;20044;-62
2022/01/13 12:08:36;;;;;;;30.75;14.55;;;3.80;99.90;;;;;;5050077;28;20475;-62
2022/01/13 12:11:03;;;;;;;30.40;14.98;;;3.80;99.90;;;;;;5050581;28;20024;-62
2022/01/13 12:13:29;;;;;;;30.55;15.18;;;3.80;99.90;;;;;;5047046;28;20024;-62
2022/01/13 12:15:56;;;;;;;36.28;16.50;;;3.80;99.90;;;;;;5048959;28;20104;-62
2022/01/13 12:18:53;;;;;;;32.92;15.18;;;3.80;99.90;;;;;;5044940;28;20048;-62
2022/01/13 12:21:37;;;;;;;32.97;15.93;;;3.80;99.90;;;;;;5050896;28;20033;-63
2022/01/13 12:24:04;;;;;;;36.50;15.68;;;3.80;99.90;;;;;;5051169;28;20040;-62
2022/01/13 12:26:33;;;;;;;36.78;15.95;;;3.80;99.90;;;;;;5052328;28;20118;-63
2022/01/13 12:29:18;;;;;;;34.20;16.88;;;3.80;99.90;;;;;;5052230;28;20055;-62
2022/01/13 12:31:48;;;;;;;34.05;15.50;;;3.80;99.90;;;;;;5052193;28;20433;-62
2022/01/13 12:34:21;;;;;;;;;;;3.70;99.90;;;;;;5052870;28;20021;-62
2022/01/13 12:37:12;;;;;;;39.40;16.48;;;3.70;99.90;;;;;;5052087;28;20360;-62
2022/01/13 12:39:58;;;;;;;36.55;16.40;;;3.70;99.90;;;;;;5048097;28;20090;-62
2022/01/13 12:42:27;;;;;;;40.38;16.98;;;3.70;99.90;;;;;;5050914;28;20366;-62
2022/01/13 13:02:03;;;;;;;36.22;16.60;;;3.70;99.90;;;;;;5052320;28;20036;-63
2022/01/13 13:04:37;;;;;;;38.05;17.88;;;3.70;99.90;;;;;;5055857;28;20655;-62
2022/01/13 13:07:05;;;;;;;34.90;16.17;;;3.70;99.90;;;;;;5056054;28;20031;-62
2022/01/13 13:09:31;;;;;;;37.22;17.00;;;3.80;99.90;;;;;;5055959;28;20457;-62
2022/01/13 13:12:00;;;;;;;38.30;17.80;;;3.80;99.90;;;;;;5055568;28;20060;-62
2022/01/13 13:15:39;;;;;;;42.60;19.00;;;3.90;99.90;;;;;;5055908;28;20057;-62
2022/01/13 13:17:32;;;;;;;42.10;19.17;;;3.80;99.90;;;;;;5055220;28;20447;-62
2022/01/13 13:19:57;;;;;;;39.38;18.95;;;3.80;99.90;;;;;;5055711;28;20041;-62
2022/01/13 13:22:26;;;;;;;44.05;19.52;;;3.80;99.90;;;;;;5055261;28;20074;-62
2022/01/13 13:24:51;;;;;;;44.00;19.40;;;3.80;99.90;;;;;;5055515;28;20036;-62
2022/01/13 13:28:01;;;;;;;;;;;;;;;;;;;;;
2022/01/13 13:30:41;;;;;;;;;;;3.80;99.90;;;;;;5055603;28;20039;-62
2022/01/13 13:33:31;;;;;;;43.88;18.83;;;3.70;99.90;;;;;;5054698;28;19913;-62
2022/01/13 13:36:02;;;;;;;;;;;3.70;99.90;;;;;;5050603;28;20131;-61
2022/01/13 13:38:28;;;;;;;39.90;18.95;;;3.70;99.90;;;;;;5055136;28;20288;-62
2022/01/13 13:40:53;;;;;;;46.30;19.35;;;3.70;99.90;;;;;;5055271;28;20504;-62
2022/01/13 13:43:58;;;;;;;38.88;18.88;;;3.70;99.90;;;;;;5054998;28;20045;-62
2022/01/13 13:46:38;;;;;;;44.45;19.48;;;3.80;99.90;;;;;;5048963;28;20111;-62